createdAt,value
2022-12-23T00:00:53.842Z,100.00
2022-12-23T00:03:27.316Z,100.00
2022-12-23T00:06:00.294Z,100.00
2022-12-23T00:08:34.443Z,100.00
2022-12-23T00:11:14.277Z,100.00
2022-12-23T00:14:04.859Z,100.00
2022-12-23T00:16:37.974Z,100.00
2022-12-23T00:19:10.554Z,100.00
2022-12-23T00:21:42.864Z,100.00
2022-12-23T00:24:15.241Z,100.00
2022-12-23T00:26:48.225Z,100.00
2022-12-23T00:29:20.723Z,100.00
2022-12-23T00:31:53.044Z,100.00
2022-12-23T00:34:25.584Z,100.00
2022-12-23T00:36:57.879Z,100.00
2022-12-23T00:39:54.632Z,100.00
2022-12-23T00:42:45.566Z,100.00
2022-12-23T00:45:18.095Z,100.00
2022-12-23T00:48:08.607Z,100.00
2022-12-23T00:50:40.864Z,100.00
2022-12-23T00:53:13.271Z,100.00
2022-12-23T00:55:47.067Z,100.00
2022-12-23T00:58:21.344Z,100.00
2022-12-23T01:01:12.240Z,100.00
2022-12-23T01:04:02.536Z,100.00
2022-12-23T01:06:34.874Z,100.00
2022-12-23T01:09:07.182Z,100.00
2022-12-23T01:11:39.633Z,100.00
2022-12-23T01:14:12.876Z,100.00
2022-12-23T01:16:45.389Z,100.00
2022-12-23T01:19:18.259Z,100.00
2022-12-23T01:21:50.613Z,100.00
2022-12-23T01:24:23.430Z,100.00
2022-12-23T01:26:56.164Z,100.00
2022-12-23T01:29:29.361Z,100.00
2022-12-23T01:32:01.820Z,100.00
2022-12-23T01:34:37.150Z,100.00
2022-12-23T01:37:10.069Z,100.00
2022-12-23T01:39:42.993Z,100.00
2022-12-23T01:42:35.214Z,99.18
2022-12-23T01:45:14.674Z,99.41
2022-12-23T01:47:52.325Z,98.35
2022-12-23T01:50:28.917Z,97.44
2022-12-23T01:53:07.831Z,98.15
2022-12-23T01:55:45.599Z,98.65
2022-12-23T01:58:22.178Z,98.90
2022-12-23T02:01:15.637Z,99.33
2022-12-23T02:03:50.310Z,99.69
2022-12-23T02:06:43.306Z,100.00
2022-12-23T02:09:17.904Z,98.95
2022-12-23T02:12:20.755Z,99.74
2022-12-23T02:15:28.628Z,99.33
2022-12-23T02:18:14.663Z,99.30
2022-12-23T02:21:03.774Z,99.41
2022-12-23T02:24:15.656Z,99.68
2022-12-23T02:27:13.989Z,99.82
2022-12-23T02:30:23.162Z,100.00
2022-12-23T02:33:15.068Z,100.00
2022-12-23T02:35:57.364Z,100.00
2022-12-23T02:38:35.778Z,99.57
2022-12-23T02:41:17.246Z,100.00
2022-12-23T02:43:56.943Z,100.00
2022-12-23T02:46:35.628Z,100.00
2022-12-23T02:49:13.098Z,100.00
2022-12-23T02:51:50.043Z,100.00
2022-12-23T02:54:27.950Z,100.00
2022-12-23T02:57:03.943Z,100.00
2022-12-23T02:59:41.839Z,100.00
2022-12-23T03:02:14.421Z,100.00
2022-12-23T03:04:47.587Z,100.00
2022-12-23T03:07:23.844Z,100.00
2022-12-23T03:10:02.840Z,100.00
2022-12-23T03:12:51.052Z,100.00
2022-12-23T03:15:37.074Z,100.00
2022-12-23T03:18:16.595Z,100.00
2022-12-23T03:20:52.655Z,100.00
2022-12-23T03:23:30.255Z,100.00
2022-12-23T03:26:09.285Z,100.00
2022-12-23T03:28:46.332Z,100.00
2022-12-23T03:31:24.928Z,100.00
2022-12-23T03:34:02.363Z,100.00
2022-12-23T03:36:40.798Z,100.00
2022-12-23T03:39:17.365Z,100.00
2022-12-23T03:41:56.110Z,100.00
2022-12-23T03:44:32.416Z,100.00
2022-12-23T03:47:09.801Z,100.00
2022-12-23T03:49:47.584Z,100.00
2022-12-23T03:52:26.915Z,100.00
2022-12-23T03:55:04.359Z,100.00
2022-12-23T03:57:41.265Z,100.00
2022-12-23T04:00:13.854Z,100.00
2022-12-23T04:02:54.426Z,100.00
2022-12-23T04:05:31.746Z,100.00
2022-12-23T04:08:13.328Z,98.79
2022-12-23T04:10:46.209Z,100.00
2022-12-23T04:13:18.669Z,100.00
2022-12-23T04:15:51.046Z,100.00
2022-12-23T04:18:23.439Z,100.00
2022-12-23T04:20:55.987Z,100.00
2022-12-23T04:23:29.056Z,100.00
2022-12-23T04:26:01.450Z,100.00
2022-12-23T04:28:33.842Z,100.00
2022-12-23T04:31:06.141Z,100.00
2022-12-23T04:33:38.561Z,100.00
2022-12-23T04:36:11.257Z,100.00
2022-12-23T04:38:44.320Z,100.00
2022-12-23T04:41:16.661Z,100.00
2022-12-23T04:43:52.921Z,100.00
2022-12-23T04:46:25.744Z,100.00
2022-12-23T04:48:58.157Z,100.00
2022-12-23T04:51:30.473Z,100.00
2022-12-23T04:54:03.706Z,100.00
2022-12-23T04:56:36.041Z,100.00
2022-12-23T04:59:09.793Z,100.00
2022-12-23T05:01:42.470Z,100.00
2022-12-23T05:04:15.095Z,100.00
2022-12-23T05:06:47.429Z,100.00
2022-12-23T05:09:20.579Z,100.00
2022-12-23T05:11:52.920Z,100.00
2022-12-23T05:14:25.329Z,100.00
2022-12-23T05:17:02.168Z,100.00
2022-12-23T05:19:37.723Z,100.00
2022-12-23T05:22:10.203Z,100.00
2022-12-23T05:24:43.280Z,100.00
2022-12-23T05:27:15.660Z,100.00
2022-12-23T05:29:48.035Z,100.00
2022-12-23T05:32:20.392Z,100.00
2022-12-23T05:34:52.789Z,100.00
2022-12-23T05:37:25.117Z,100.00
2022-12-23T05:39:58.143Z,100.00
2022-12-23T05:42:30.636Z,100.00
2022-12-23T05:45:03.385Z,100.00
2022-12-23T05:47:36.192Z,100.00
2022-12-23T05:50:09.248Z,100.00
2022-12-23T05:52:41.584Z,100.00
2022-12-23T05:55:14.651Z,100.00
2022-12-23T05:57:46.977Z,100.00
2022-12-23T06:00:20.822Z,100.00
2022-12-23T06:02:54.194Z,100.00
2022-12-23T06:05:27.195Z,100.00
2022-12-23T06:07:59.503Z,100.00
2022-12-23T06:10:32.607Z,100.00
2022-12-23T06:13:04.945Z,100.00
2022-12-23T06:15:37.417Z,100.00
2022-12-23T06:18:09.901Z,100.00
2022-12-23T06:20:45.212Z,100.00
2022-12-23T06:23:17.685Z,100.00
2022-12-23T06:25:58.232Z,100.00
2022-12-23T06:28:30.605Z,100.00
2022-12-23T06:31:03.072Z,100.00
2022-12-23T06:33:35.422Z,100.00
2022-12-23T06:36:08.544Z,100.00
2022-12-23T06:38:40.921Z,100.00
2022-12-23T06:41:13.932Z,100.00
2022-12-23T06:43:49.814Z,100.00
2022-12-23T06:46:24.948Z,100.00
2022-12-23T06:48:57.270Z,99.93
2022-12-23T06:51:29.646Z,98.27
2022-12-23T06:54:02.161Z,98.45
2022-12-23T06:56:35.250Z,98.55
2022-12-23T06:59:07.617Z,98.57
2022-12-23T07:01:40.255Z,98.78
2022-12-23T07:04:12.641Z,99.04
2022-12-23T07:06:45.094Z,99.03
2022-12-23T07:09:17.484Z,99.24
2022-12-23T07:11:50.504Z,99.34
2022-12-23T07:14:22.814Z,98.92
2022-12-23T07:16:55.224Z,98.97
2022-12-23T07:19:27.571Z,99.01
2022-12-23T07:21:59.857Z,98.50
2022-12-23T07:24:32.635Z,98.87
2022-12-23T07:27:05.646Z,99.34
2022-12-23T07:29:37.999Z,99.21
2022-12-23T07:32:10.395Z,99.04
2022-12-23T07:34:42.745Z,98.76
2022-12-23T07:37:15.139Z,99.29
2022-12-23T07:39:47.513Z,99.17
2022-12-23T07:45:12.858Z,100.00
2022-12-23T07:47:45.307Z,100.00
2022-12-23T07:50:17.770Z,100.00
2022-12-23T07:52:50.802Z,100.00
2022-12-23T07:55:23.172Z,99.99
2022-12-23T07:57:56.205Z,99.77
2022-12-23T08:00:28.770Z,99.67
2022-12-23T08:03:01.485Z,99.37
2022-12-23T08:05:33.831Z,98.16
2022-12-23T08:08:06.203Z,98.50
2022-12-23T08:10:44.384Z,97.93
2022-12-23T08:13:21.033Z,97.16
2022-12-23T08:15:57.015Z,95.15
2022-12-23T08:18:30.501Z,93.81
2022-12-23T08:21:04.463Z,94.06
2022-12-23T08:23:36.829Z,93.52
2022-12-23T08:26:11.537Z,93.94
2022-12-23T08:28:45.433Z,93.83
2022-12-23T08:31:19.644Z,94.80
2022-12-23T08:33:54.087Z,94.80
2022-12-23T08:36:29.042Z,94.51
2022-12-23T08:39:04.012Z,94.16
2022-12-23T08:41:39.725Z,93.22
2022-12-23T08:44:13.824Z,91.32
2022-12-23T08:46:46.338Z,90.78
2022-12-23T08:49:18.708Z,89.57
2022-12-23T08:51:51.298Z,88.93
2022-12-23T08:54:24.471Z,88.33
2022-12-23T08:56:56.834Z,88.25
2022-12-23T08:59:29.846Z,88.56
2022-12-23T09:02:02.738Z,88.17
2022-12-23T09:04:36.232Z,87.88
2022-12-23T09:07:08.649Z,87.66
2022-12-23T09:09:41.011Z,87.19
2022-12-23T09:12:13.440Z,86.15
2022-12-23T09:14:47.009Z,85.88
2022-12-23T09:17:19.450Z,86.81
2022-12-23T09:19:53.178Z,86.24
2022-12-23T09:22:25.871Z,85.29
2022-12-23T09:25:04.638Z,84.87
2022-12-23T09:27:37.712Z,85.14
2022-12-23T09:30:11.830Z,86.38
2022-12-23T09:32:44.303Z,86.70
2022-12-23T09:35:17.180Z,86.58
2022-12-23T09:37:49.592Z,86.90
2022-12-23T09:40:22.478Z,87.70
2022-12-23T09:43:07.220Z,87.58
2022-12-23T09:45:58.456Z,87.77
2022-12-23T09:48:35.851Z,87.44
2022-12-23T09:51:10.363Z,87.82
2022-12-23T09:53:52.278Z,87.95
2022-12-23T09:56:31.379Z,87.68
2022-12-23T09:59:16.627Z,86.37
2022-12-23T10:01:56.135Z,85.48
2022-12-23T10:04:45.252Z,86.36
2022-12-23T10:07:25.426Z,87.23
2022-12-23T10:09:59.381Z,86.90
2022-12-23T10:12:40.243Z,87.25
2022-12-23T10:15:21.196Z,88.09
2022-12-23T10:17:58.149Z,87.30
2022-12-23T10:20:38.999Z,85.51
2022-12-23T10:23:16.909Z,85.02
2022-12-23T10:25:51.375Z,85.66
2022-12-23T10:28:23.947Z,83.61
2022-12-23T10:31:38.502Z,80.93
2022-12-23T10:34:04.701Z,80.11
2022-12-23T10:36:44.041Z,78.26
2022-12-23T10:39:27.396Z,76.65
2022-12-23T10:42:14.677Z,78.29
2022-12-23T10:45:04.351Z,76.37
2022-12-23T10:47:41.626Z,75.74
2022-12-23T10:50:36.254Z,76.81
2022-12-23T10:53:10.732Z,77.36
2022-12-23T10:55:43.621Z,78.01
2022-12-23T10:58:17.821Z,78.27
2022-12-23T11:00:54.315Z,76.95
2022-12-23T11:03:30.994Z,76.69
2022-12-23T11:06:07.140Z,76.73
2022-12-23T11:08:40.403Z,76.19
2022-12-23T11:11:12.822Z,75.98
2022-12-23T11:13:46.230Z,76.47
2022-12-23T11:16:23.018Z,76.16
2022-12-23T11:18:59.195Z,77.70
2022-12-23T11:21:33.415Z,78.44
2022-12-23T11:24:17.218Z,77.28
2022-12-23T11:26:58.398Z,77.34
2022-12-23T11:29:34.371Z,76.54
2022-12-23T11:32:16.625Z,76.92
2022-12-23T11:34:50.524Z,79.49
2022-12-23T11:37:34.541Z,78.35
2022-12-23T11:40:20.549Z,79.04
2022-12-23T11:42:57.468Z,78.33
2022-12-23T11:45:32.682Z,80.82
2022-12-23T11:48:06.809Z,81.61
2022-12-23T11:50:40.297Z,81.13
2022-12-23T11:53:21.821Z,81.48
2022-12-23T11:55:59.733Z,82.91
2022-12-23T11:58:39.706Z,82.42
2022-12-23T12:01:16.422Z,81.88
2022-12-23T12:03:54.363Z,82.40
2022-12-23T12:06:27.712Z,82.33
2022-12-23T12:09:06.050Z,81.81
2022-12-23T12:11:43.899Z,80.73
2022-12-23T12:14:22.625Z,80.03
2022-12-23T12:17:00.351Z,80.14
2022-12-23T12:19:36.350Z,79.57
2022-12-23T12:22:33.344Z,79.91
2022-12-23T12:25:19.079Z,79.61
2022-12-23T12:27:56.804Z,79.77
2022-12-23T12:30:33.477Z,79.29
2022-12-23T12:33:14.817Z,78.70
2022-12-23T12:35:53.432Z,78.24
2022-12-23T12:38:31.498Z,78.95
2022-12-23T12:41:15.893Z,79.53
2022-12-23T12:43:52.303Z,78.50
2022-12-23T12:46:30.958Z,79.23
2022-12-23T12:49:11.647Z,79.68
2022-12-23T12:51:49.881Z,78.26
2022-12-23T12:54:27.267Z,78.58
2022-12-23T12:57:01.869Z,77.09
2022-12-23T12:59:36.811Z,75.23
2022-12-23T13:02:28.089Z,74.29
2022-12-23T13:05:16.763Z,73.91
2022-12-23T13:08:02.437Z,73.02
2022-12-23T13:10:42.844Z,71.65
2022-12-23T13:13:35.364Z,70.90
2022-12-23T13:16:19.671Z,70.62
2022-12-23T13:18:58.372Z,71.17
2022-12-23T13:21:37.047Z,71.58
2022-12-23T13:24:19.566Z,71.81
2022-12-23T13:27:02.448Z,71.76
2022-12-23T13:29:57.947Z,70.54
2022-12-23T13:32:49.549Z,70.10
2022-12-23T13:35:38.792Z,68.95
2022-12-23T13:38:25.355Z,69.44
2022-12-23T13:41:02.785Z,69.94
2022-12-23T13:43:42.802Z,68.05
2022-12-23T13:46:22.718Z,68.25
2022-12-23T13:49:02.659Z,67.54
2022-12-23T13:51:43.247Z,68.06
2022-12-23T13:54:26.606Z,65.42
2022-12-23T13:57:07.751Z,65.72
2022-12-23T13:59:41.741Z,65.26
2022-12-23T14:02:43.178Z,65.90
2022-12-23T14:05:35.853Z,64.61
2022-12-23T14:08:26.600Z,64.39
2022-12-23T14:11:02.574Z,65.22
2022-12-23T14:13:45.594Z,64.17
2022-12-23T14:16:48.229Z,65.17
2022-12-23T14:19:42.040Z,65.74
2022-12-23T14:22:44.979Z,66.17
2022-12-23T14:25:39.927Z,65.53
2022-12-23T14:28:26.972Z,65.90
2022-12-23T14:30:59.637Z,66.76
2022-12-23T14:33:36.408Z,67.71
2022-12-23T14:36:23.042Z,68.90
2022-12-23T14:39:28.615Z,69.03
2022-12-23T14:42:06.457Z,69.06
2022-12-23T14:44:49.611Z,69.34
2022-12-23T14:47:35.169Z,70.38
2022-12-23T14:50:37.370Z,70.26
2022-12-23T14:53:22.229Z,71.41
2022-12-23T14:56:20.639Z,71.10
2022-12-23T14:59:13.215Z,71.48
2022-12-23T15:01:48.513Z,71.77
2022-12-23T15:04:24.319Z,71.76
2022-12-23T15:07:02.084Z,72.16
2022-12-23T15:09:39.333Z,73.25
2022-12-23T15:12:20.276Z,74.67
2022-12-23T15:14:57.017Z,74.31
2022-12-23T15:17:31.404Z,74.96
2022-12-23T15:20:12.392Z,76.13
2022-12-23T15:22:46.868Z,76.90
2022-12-23T15:25:22.127Z,78.18
2022-12-23T15:28:01.424Z,78.79
2022-12-23T15:30:35.722Z,78.34
2022-12-23T15:33:34.758Z,78.73
2022-12-23T15:36:04.374Z,80.21
2022-12-23T15:38:38.688Z,80.45
2022-12-23T15:41:17.845Z,81.00
2022-12-23T15:43:50.358Z,81.76
2022-12-23T15:46:29.875Z,82.20
2022-12-23T15:49:02.717Z,82.78
2022-12-23T15:54:33.700Z,85.38
2022-12-23T15:57:06.727Z,85.47
2022-12-23T15:59:39.592Z,85.47
2022-12-23T16:02:50.205Z,85.56
2022-12-23T16:05:22.333Z,85.31
2022-12-23T16:08:10.678Z,85.24
2022-12-23T16:10:57.858Z,84.54
2022-12-23T16:13:33.123Z,84.89
2022-12-23T16:16:32.835Z,85.75
2022-12-23T16:19:05.354Z,86.07
2022-12-23T16:21:37.916Z,86.52
2022-12-23T16:24:12.894Z,87.83
2022-12-23T16:26:45.371Z,87.61
2022-12-23T16:29:18.648Z,87.71
2022-12-23T16:32:01.224Z,88.18
2022-12-23T16:34:34.087Z,87.92
2022-12-23T16:37:07.648Z,87.95
2022-12-23T16:39:40.621Z,87.42
2022-12-23T16:42:22.815Z,88.03
2022-12-23T16:44:55.863Z,88.01
2022-12-23T16:47:28.833Z,88.66
2022-12-23T16:50:01.327Z,89.14
2022-12-23T16:52:33.727Z,88.12
2022-12-23T16:55:13.966Z,87.67
2022-12-23T16:57:46.435Z,87.78
2022-12-23T17:00:19.726Z,90.38
2022-12-23T17:02:52.241Z,90.79
2022-12-23T17:05:24.693Z,90.68
2022-12-23T17:07:57.266Z,91.82
2022-12-23T17:10:29.703Z,93.62
2022-12-23T17:13:02.125Z,94.44
2022-12-23T17:15:35.086Z,95.12
2022-12-23T17:18:12.372Z,94.23
2022-12-23T17:20:47.168Z,94.48
2022-12-23T17:23:26.590Z,95.00
2022-12-23T17:25:59.111Z,93.28
2022-12-23T17:28:32.656Z,94.43
2022-12-23T17:31:12.156Z,94.66
2022-12-23T17:33:46.744Z,95.06
2022-12-23T17:36:19.261Z,95.71
2022-12-23T17:38:51.892Z,96.50
2022-12-23T17:41:28.414Z,95.96
2022-12-23T17:44:01.477Z,97.14
2022-12-23T17:46:34.948Z,97.58
2022-12-23T17:49:07.338Z,98.20
2022-12-23T17:51:40.963Z,98.84
2022-12-23T17:54:21.587Z,99.05
2022-12-23T17:56:53.694Z,100.00
2022-12-23T17:59:26.014Z,100.00
2022-12-23T18:01:59.075Z,99.53
2022-12-23T18:04:31.529Z,99.46
2022-12-23T18:07:03.856Z,99.78
2022-12-23T18:09:36.231Z,99.99
2022-12-23T18:12:24.948Z,100.00
2022-12-23T18:14:57.910Z,99.42
2022-12-23T18:17:31.368Z,100.00
2022-12-23T18:20:04.430Z,100.00
2022-12-23T18:22:36.926Z,100.00
2022-12-23T18:25:15.641Z,100.00
2022-12-23T18:27:48.082Z,100.00
2022-12-23T18:30:21.725Z,100.00
2022-12-23T18:32:54.854Z,100.00
2022-12-23T18:35:30.032Z,100.00
2022-12-23T18:38:02.351Z,100.00
2022-12-23T18:40:34.973Z,100.00
2022-12-23T18:43:15.594Z,100.00
2022-12-23T18:45:52.760Z,100.00
2022-12-23T18:48:26.672Z,100.00
2022-12-23T18:50:59.024Z,100.00
2022-12-23T18:53:31.340Z,100.00
2022-12-23T18:56:03.909Z,100.00
2022-12-23T18:58:36.232Z,100.00
2022-12-23T19:01:11.839Z,100.00
2022-12-23T19:03:45.915Z,100.00
2022-12-23T19:06:18.280Z,100.00
2022-12-23T19:08:50.619Z,100.00
2022-12-23T19:11:22.973Z,100.00
2022-12-23T19:13:55.261Z,100.00
2022-12-23T19:16:27.670Z,100.00
2022-12-23T19:19:00.872Z,100.00
2022-12-23T19:21:33.390Z,100.00
2022-12-23T19:24:05.916Z,100.00
2022-12-23T19:26:38.312Z,100.00
2022-12-23T19:29:10.710Z,100.00
2022-12-23T19:31:43.146Z,100.00
2022-12-23T19:34:16.233Z,100.00
2022-12-23T19:36:48.715Z,100.00
2022-12-23T19:39:23.302Z,100.00
2022-12-23T19:41:55.925Z,100.00
2022-12-23T19:44:28.366Z,100.00
2022-12-23T19:47:01.732Z,100.00
2022-12-23T19:49:34.669Z,100.00
2022-12-23T19:52:07.103Z,100.00
2022-12-23T19:54:39.431Z,100.00
2022-12-23T19:57:11.892Z,100.00
2022-12-23T19:59:44.205Z,100.00
2022-12-23T20:02:16.984Z,100.00
2022-12-23T20:04:50.054Z,100.00
2022-12-23T20:07:22.545Z,100.00
2022-12-23T20:09:54.954Z,100.00
2022-12-23T20:12:27.327Z,100.00
2022-12-23T20:14:59.677Z,100.00
2022-12-23T20:17:32.080Z,100.00
2022-12-23T20:20:06.911Z,100.00
2022-12-23T20:22:39.288Z,100.00
2022-12-23T20:25:11.599Z,100.00
2022-12-23T20:27:43.989Z,100.00
2022-12-23T20:30:16.380Z,100.00
2022-12-23T20:32:48.763Z,100.00
2022-12-23T20:35:21.801Z,100.00
2022-12-23T20:37:54.208Z,100.00
2022-12-23T20:40:26.528Z,100.00
2022-12-23T20:42:59.109Z,100.00
2022-12-23T20:45:31.493Z,100.00
2022-12-23T20:48:04.651Z,100.00
2022-12-23T20:50:39.225Z,100.00
2022-12-23T20:53:11.755Z,100.00
2022-12-23T20:55:44.227Z,100.00
2022-12-23T20:58:34.965Z,100.00
2022-12-23T21:01:08.722Z,100.00
2022-12-23T21:03:41.453Z,100.00
2022-12-23T21:06:14.691Z,100.00
2022-12-23T21:08:47.705Z,100.00
2022-12-23T21:11:20.055Z,100.00
2022-12-23T21:13:52.485Z,100.00
2022-12-23T21:16:24.845Z,100.00
2022-12-23T21:18:58.073Z,100.00
2022-12-23T21:21:31.180Z,100.00
2022-12-23T21:24:04.767Z,100.00
2022-12-23T21:26:37.689Z,100.00
2022-12-23T21:29:10.553Z,100.00
2022-12-23T21:31:42.928Z,100.00
2022-12-23T21:34:15.413Z,100.00
2022-12-23T21:36:48.494Z,100.00
2022-12-23T21:39:20.921Z,100.00
2022-12-23T21:41:53.246Z,100.00
2022-12-23T21:44:25.815Z,100.00
2022-12-23T21:46:58.179Z,100.00
2022-12-23T21:49:30.571Z,100.00
2022-12-23T21:52:03.942Z,100.00
2022-12-23T21:54:36.374Z,100.00
2022-12-23T21:57:09.191Z,100.00
2022-12-23T21:59:41.563Z,100.00
2022-12-23T22:02:15.617Z,100.00
2022-12-23T22:04:48.122Z,100.00
2022-12-23T22:07:21.125Z,100.00
2022-12-23T22:09:53.499Z,100.00
2022-12-23T22:12:25.781Z,100.00
2022-12-23T22:14:58.194Z,100.00
2022-12-23T22:17:30.520Z,100.00
2022-12-23T22:20:03.726Z,100.00
2022-12-23T22:22:36.721Z,100.00
2022-12-23T22:25:09.671Z,100.00
2022-12-23T22:27:42.009Z,100.00
2022-12-23T22:30:14.698Z,100.00
2022-12-23T22:32:47.215Z,100.00
2022-12-23T22:35:19.622Z,100.00
2022-12-23T22:37:52.613Z,100.00
2022-12-23T22:40:25.024Z,100.00
2022-12-23T22:42:57.301Z,100.00
2022-12-23T22:45:29.964Z,100.00
2022-12-23T22:48:02.579Z,100.00
2022-12-23T22:50:35.169Z,100.00
2022-12-23T22:53:08.093Z,100.00
2022-12-23T22:55:40.771Z,100.00
2022-12-23T22:58:13.078Z,100.00
2022-12-23T23:00:45.470Z,100.00
2022-12-23T23:03:17.859Z,100.00
2022-12-23T23:05:58.575Z,100.00
2022-12-23T23:08:33.571Z,100.00
2022-12-23T23:11:06.035Z,100.00
2022-12-23T23:13:38.373Z,100.00
2022-12-23T23:16:10.740Z,100.00
2022-12-23T23:18:43.290Z,100.00
2022-12-23T23:21:15.936Z,100.00
2022-12-23T23:23:49.134Z,100.00
2022-12-23T23:26:25.959Z,100.00
2022-12-23T23:28:58.251Z,100.00
2022-12-23T23:31:45.880Z,100.00
2022-12-23T23:34:18.279Z,100.00
2022-12-23T23:36:50.728Z,100.00
2022-12-23T23:39:23.941Z,100.00
2022-12-23T23:41:56.367Z,100.00
2022-12-23T23:44:28.789Z,100.00
2022-12-23T23:47:01.367Z,100.00
2022-12-23T23:49:33.865Z,100.00
2022-12-23T23:52:06.200Z,100.00
2022-12-23T23:54:39.174Z,100.00
2022-12-23T23:57:11.611Z,100.00
2022-12-23T23:59:43.947Z,100.00
